Chesham, United Kingdom
Current Conditions -  °F | °C
As of 10:50 PM on Tuesday 21 Oct 2014 (Local Time) from EGWU Reporting Station
Few Clouds Few Clouds  
Wind Chill: 39°   Ceiling: Unl
Heat Index: 46°   Visibility: 6mi
Dew Point: 34°   Wind: 17mph
Humidity: 62%   Direction: 310°NW
Pressure: 30.12"   Gusts: NA
Location:  51.7°N, 0.6°W
Report Text: EGWU 212150Z AUTO 31015KT 9999 // FEW036/// 08/01 Q1020
Loading
Personal Weather Stations






























Interactive Weather Map
Tropical Storm Tracking
New forecast layout! Learn more

10-Day Weather Forecast

Advertisements
Track Severe Weather on mobile